Metar GG30 METAR message from awiacja.imgw.pl Metar G30 EPPO METAR EPPO 040930Z 34005KT CAVOK 17/13 Q1011 =